sensor_id;sensor_type;location;lat;lon;timestamp;temperature;humidity
9847;DHT22;4962;50.084;8.794;2023-03-04T00:00:36;9.40;99.90
9847;DHT22;4962;50.084;8.794;2023-03-04T00:03:07;9.40;99.90
9847;DHT22;4962;50.084;8.794;2023-03-04T00:05:35;9.40;99.90
9847;DHT22;4962;50.084;8.794;2023-03-04T00:08:02;9.40;99.90
9847;DHT22;4962;50.084;8.794;2023-03-04T00:10:30;9.40;99.90
9847;DHT22;4962;50.084;8.794;2023-03-04T00:12:57;9.40;99.90
9847;DHT22;4962;50.084;8.794;2023-03-04T00:15:23;9.40;99.90
9847;DHT22;4962;50.084;8.794;2023-03-04T00:17:52;9.40;99.90
9847;DHT22;4962;50.084;8.794;2023-03-04T00:20:19;9.40;99.90
9847;DHT22;4962;50.084;8.794;2023-03-04T00:22:46;9.40;99.90
9847;DHT22;4962;50.084;8.794;2023-03-04T00:25:13;9.50;99.90
9847;DHT22;4962;50.084;8.794;2023-03-04T00:27:40;9.40;99.90
9847;DHT22;4962;50.084;8.794;2023-03-04T00:30:09;9.50;99.90
9847;DHT22;4962;50.084;8.794;2023-03-04T00:32:36;9.50;99.90
9847;DHT22;4962;50.084;8.794;2023-03-04T00:35:05;9.50;99.90
9847;DHT22;4962;50.084;8.794;2023-03-04T00:37:32;9.50;99.90
9847;DHT22;4962;50.084;8.794;2023-03-04T00:39:59;9.50;99.90
9847;DHT22;4962;50.084;8.794;2023-03-04T00:42:26;9.50;99.90
9847;DHT22;4962;50.084;8.794;2023-03-04T00:44:53;9.50;99.90
9847;DHT22;4962;50.084;8.794;2023-03-04T00:47:20;9.50;99.90
9847;DHT22;4962;50.084;8.794;2023-03-04T00:49:46;9.40;99.90
9847;DHT22;4962;50.084;8.794;2023-03-04T00:52:15;9.50;99.90
9847;DHT22;4962;50.084;8.794;2023-03-04T00:54:42;9.60;99.90
9847;DHT22;4962;50.084;8.794;2023-03-04T00:57:09;9.60;99.90
9847;DHT22;4962;50.084;8.794;2023-03-04T00:59:36;9.60;99.90
9847;DHT22;4962;50.084;8.794;2023-03-04T01:02:03;9.60;99.90
9847;DHT22;4962;50.084;8.794;2023-03-04T01:04:29;9.60;99.90
9847;DHT22;4962;50.084;8.794;2023-03-04T01:06:56;9.60;99.90
9847;DHT22;4962;50.084;8.794;2023-03-04T01:09:25;9.60;99.90
9847;DHT22;4962;50.084;8.794;2023-03-04T01:11:52;9.60;99.90
9847;DHT22;4962;50.084;8.794;2023-03-04T01:14:19;9.50;99.90
9847;DHT22;4962;50.084;8.794;2023-03-04T01:16:46;9.50;99.90
9847;DHT22;4962;50.084;8.794;2023-03-04T01:19:13;9.50;99.90
9847;DHT22;4962;50.084;8.794;2023-03-04T01:21:41;9.40;99.90
9847;DHT22;4962;50.084;8.794;2023-03-04T01:24:08;9.50;99.90
9847;DHT22;4962;50.084;8.794;2023-03-04T01:26:36;9.50;99.90
9847;DHT22;4962;50.084;8.794;2023-03-04T01:29:03;9.50;99.90
9847;DHT22;4962;50.084;8.794;2023-03-04T01:31:30;9.50;99.90
9847;DHT22;4962;50.084;8.794;2023-03-04T01:34:00;9.50;99.90
9847;DHT22;4962;50.084;8.794;2023-03-04T01:36:27;9.50;99.90
9847;DHT22;4962;50.084;8.794;2023-03-04T01:38:55;9.60;99.90
9847;DHT22;4962;50.084;8.794;2023-03-04T01:41:24;9.50;99.90
9847;DHT22;4962;50.084;8.794;2023-03-04T01:43:54;9.60;99.90
9847;DHT22;4962;50.084;8.794;2023-03-04T01:46:21;9.60;99.90
9847;DHT22;4962;50.084;8.794;2023-03-04T01:48:48;9.60;99.90
9847;DHT22;4962;50.084;8.794;2023-03-04T01:51:17;9.90;99.90
9847;DHT22;4962;50.084;8.794;2023-03-04T01:53:46;9.60;99.90
9847;DHT22;4962;50.084;8.794;2023-03-04T01:56:17;9.50;99.90
9847;DHT22;4962;50.084;8.794;2023-03-04T01:58:49;9.50;99.90
9847;DHT22;4962;50.084;8.794;2023-03-04T02:01:33;9.60;99.90
9847;DHT22;4962;50.084;8.794;2023-03-04T02:04:00;9.60;99.90
9847;DHT22;4962;50.084;8.794;2023-03-04T02:06:27;9.60;99.90
9847;DHT22;4962;50.084;8.794;2023-03-04T02:08:54;9.50;99.90
9847;DHT22;4962;50.084;8.794;2023-03-04T02:11:23;9.60;99.90
9847;DHT22;4962;50.084;8.794;2023-03-04T02:13:50;9.50;99.90
9847;DHT22;4962;50.084;8.794;2023-03-04T02:16:18;9.50;99.90
9847;DHT22;4962;50.084;8.794;2023-03-04T02:18:46;9.40;99.90
9847;DHT22;4962;50.084;8.794;2023-03-04T02:21:18;9.40;99.90
9847;DHT22;4962;50.084;8.794;2023-03-04T02:23:54;9.40;99.90
9847;DHT22;4962;50.084;8.794;2023-03-04T02:26:25;9.30;99.90
9847;DHT22;4962;50.084;8.794;2023-03-04T02:28:54;9.30;99.90
9847;DHT22;4962;50.084;8.794;2023-03-04T02:31:25;9.30;99.90
9847;DHT22;4962;50.084;8.794;2023-03-04T02:33:54;9.30;99.90
9847;DHT22;4962;50.084;8.794;2023-03-04T02:36:22;9.30;99.90
9847;DHT22;4962;50.084;8.794;2023-03-04T02:38:51;9.30;99.90
9847;DHT22;4962;50.084;8.794;2023-03-04T02:41:21;9.40;99.90
9847;DHT22;4962;50.084;8.794;2023-03-04T02:43:52;9.40;99.90
9847;DHT22;4962;50.084;8.794;2023-03-04T02:46:20;9.40;99.90
9847;DHT22;4962;50.084;8.794;2023-03-04T02:48:47;9.40;99.90
9847;DHT22;4962;50.084;8.794;2023-03-04T02:51:15;9.40;99.90
9847;DHT22;4962;50.084;8.794;2023-03-04T02:53:41;9.40;99.90
9847;DHT22;4962;50.084;8.794;2023-03-04T02:56:08;9.40;99.90
9847;DHT22;4962;50.084;8.794;2023-03-04T02:58:36;9.30;99.90
9847;DHT22;4962;50.084;8.794;2023-03-04T03:01:05;9.30;99.90
9847;DHT22;4962;50.084;8.794;2023-03-04T03:03:32;9.30;99.90
9847;DHT22;4962;50.084;8.794;2023-03-04T03:05:59;9.30;99.90
9847;DHT22;4962;50.084;8.794;2023-03-04T03:08:26;9.30;99.90
9847;DHT22;4962;50.084;8.794;2023-03-04T03:10:53;9.30;99.90
9847;DHT22;4962;50.084;8.794;2023-03-04T03:13:20;9.40;99.90
9847;DHT22;4962;50.084;8.794;2023-03-04T03:15:46;9.30;99.90
9847;DHT22;4962;50.084;8.794;2023-03-04T03:18:15;9.30;99.90
9847;DHT22;4962;50.084;8.794;2023-03-04T03:20:42;9.20;99.90
9847;DHT22;4962;50.084;8.794;2023-03-04T03:23:09;9.30;99.90
9847;DHT22;4962;50.084;8.794;2023-03-04T03:25:36;9.30;99.90
9847;DHT22;4962;50.084;8.794;2023-03-04T03:28:03;9.30;99.90
9847;DHT22;4962;50.084;8.794;2023-03-04T03:30:30;9.30;99.90
9847;DHT22;4962;50.084;8.794;2023-03-04T03:32:57;9.40;99.90
9847;DHT22;4962;50.084;8.794;2023-03-04T03:35:25;9.40;99.90
9847;DHT22;4962;50.084;8.794;2023-03-04T03:37:52;9.40;99.90
9847;DHT22;4962;50.084;8.794;2023-03-04T03:40:19;9.40;99.90
9847;DHT22;4962;50.084;8.794;2023-03-04T03:42:46;9.40;99.90
9847;DHT22;4962;50.084;8.794;2023-03-04T03:45:13;9.40;99.90
9847;DHT22;4962;50.084;8.794;2023-03-04T03:47:40;9.30;99.90
9847;DHT22;4962;50.084;8.794;2023-03-04T03:50:08;9.40;99.90
9847;DHT22;4962;50.084;8.794;2023-03-04T03:52:36;9.40;99.90
9847;DHT22;4962;50.084;8.794;2023-03-04T03:55:04;9.40;99.90
9847;DHT22;4962;50.084;8.794;2023-03-04T03:57:31;9.40;99.90
9847;DHT22;4962;50.084;8.794;2023-03-04T03:59:58;9.40;99.90
9847;DHT22;4962;50.084;8.794;2023-03-04T04:02:25;9.40;99.90
9847;DHT22;4962;50.084;8.794;2023-03-04T04:04:51;9.40;99.90
9847;DHT22;4962;50.084;8.794;2023-03-04T04:07:18;9.30;99.90
9847;DHT22;4962;50.084;8.794;2023-03-04T04:09:47;9.40;99.90
9847;DHT22;4962;50.084;8.794;2023-03-04T04:12:15;9.40;99.90
9847;DHT22;4962;50.084;8.794;2023-03-04T04:14:42;9.40;99.90
9847;DHT22;4962;50.084;8.794;2023-03-04T04:17:09;9.40;99.90
9847;DHT22;4962;50.084;8.794;2023-03-04T04:19:36;9.40;99.90
9847;DHT22;4962;50.084;8.794;2023-03-04T04:22:05;9.50;99.90
9847;DHT22;4962;50.084;8.794;2023-03-04T04:24:32;9.40;99.90
9847;DHT22;4962;50.084;8.794;2023-03-04T04:27:00;9.50;99.90
9847;DHT22;4962;50.084;8.794;2023-03-04T04:29:29;9.50;99.90
9847;DHT22;4962;50.084;8.794;2023-03-04T04:31:56;9.50;99.90
9847;DHT22;4962;50.084;8.794;2023-03-04T04:34:23;9.50;99.90
9847;DHT22;4962;50.084;8.794;2023-03-04T04:36:50;9.50;99.90
9847;DHT22;4962;50.084;8.794;2023-03-04T04:39:17;9.50;99.90
9847;DHT22;4962;50.084;8.794;2023-03-04T04:41:45;9.40;99.90
9847;DHT22;4962;50.084;8.794;2023-03-04T04:44:13;9.40;99.90
9847;DHT22;4962;50.084;8.794;2023-03-04T04:46:41;9.40;99.90
9847;DHT22;4962;50.084;8.794;2023-03-04T04:49:08;9.40;99.90
9847;DHT22;4962;50.084;8.794;2023-03-04T04:51:36;9.30;99.90
9847;DHT22;4962;50.084;8.794;2023-03-04T04:54:04;9.30;99.90
9847;DHT22;4962;50.084;8.794;2023-03-04T04:56:32;9.30;99.90
9847;DHT22;4962;50.084;8.794;2023-03-04T04:59:00;9.30;99.90
9847;DHT22;4962;50.084;8.794;2023-03-04T05:01:30;9.30;99.90
9847;DHT22;4962;50.084;8.794;2023-03-04T05:03:57;9.30;99.90
9847;DHT22;4962;50.084;8.794;2023-03-04T05:06:25;9.20;99.90
9847;DHT22;4962;50.084;8.794;2023-03-04T05:08:52;9.20;99.90
9847;DHT22;4962;50.084;8.794;2023-03-04T05:11:19;9.10;99.90
9847;DHT22;4962;50.084;8.794;2023-03-04T05:13:47;9.10;99.90
9847;DHT22;4962;50.084;8.794;2023-03-04T05:16:14;9.10;99.90
9847;DHT22;4962;50.084;8.794;2023-03-04T05:18:43;9.00;99.90
9847;DHT22;4962;50.084;8.794;2023-03-04T05:21:10;9.00;99.90
9847;DHT22;4962;50.084;8.794;2023-03-04T05:23:39;8.90;99.90
9847;DHT22;4962;50.084;8.794;2023-03-04T05:26:07;9.00;99.90
9847;DHT22;4962;50.084;8.794;2023-03-04T05:28:35;9.00;99.90
9847;DHT22;4962;50.084;8.794;2023-03-04T05:31:02;9.00;99.90
9847;DHT22;4962;50.084;8.794;2023-03-04T05:33:29;9.10;99.90
9847;DHT22;4962;50.084;8.794;2023-03-04T05:35:58;9.00;99.90
9847;DHT22;4962;50.084;8.794;2023-03-04T05:38:25;9.00;99.90
9847;DHT22;4962;50.084;8.794;2023-03-04T05:40:56;9.10;99.90
9847;DHT22;4962;50.084;8.794;2023-03-04T05:43:23;9.20;99.90
9847;DHT22;4962;50.084;8.794;2023-03-04T05:45:50;9.20;99.90
9847;DHT22;4962;50.084;8.794;2023-03-04T05:48:18;9.20;99.90
9847;DHT22;4962;50.084;8.794;2023-03-04T05:50:45;9.20;99.90
9847;DHT22;4962;50.084;8.794;2023-03-04T05:53:13;9.20;99.90
9847;DHT22;4962;50.084;8.794;2023-03-04T05:55:45;9.30;99.90
9847;DHT22;4962;50.084;8.794;2023-03-04T05:58:12;9.30;99.90
9847;DHT22;4962;50.084;8.794;2023-03-04T06:00:40;9.30;99.90
9847;DHT22;4962;50.084;8.794;2023-03-04T06:03:13;9.30;99.90
9847;DHT22;4962;50.084;8.794;2023-03-04T06:05:41;9.30;99.90
9847;DHT22;4962;50.084;8.794;2023-03-04T06:08:08;9.20;99.90
9847;DHT22;4962;50.084;8.794;2023-03-04T06:10:37;9.20;99.90
9847;DHT22;4962;50.084;8.794;2023-03-04T06:13:05;9.30;99.90
9847;DHT22;4962;50.084;8.794;2023-03-04T06:15:32;9.30;99.90
9847;DHT22;4962;50.084;8.794;2023-03-04T06:17:59;9.20;99.90
9847;DHT22;4962;50.084;8.794;2023-03-04T06:20:26;9.20;99.90
9847;DHT22;4962;50.084;8.794;2023-03-04T06:22:55;9.30;99.90
9847;DHT22;4962;50.084;8.794;2023-03-04T06:25:22;9.30;99.90
9847;DHT22;4962;50.084;8.794;2023-03-04T06:27:50;9.20;99.90
9847;DHT22;4962;50.084;8.794;2023-03-04T06:30:18;9.20;99.90
9847;DHT22;4962;50.084;8.794;2023-03-04T06:32:45;9.30;99.90
9847;DHT22;4962;50.084;8.794;2023-03-04T06:35:13;9.30;99.90
9847;DHT22;4962;50.084;8.794;2023-03-04T06:37:40;9.30;99.90
9847;DHT22;4962;50.084;8.794;2023-03-04T06:40:08;9.20;99.90
9847;DHT22;4962;50.084;8.794;2023-03-04T06:42:36;9.20;99.90
9847;DHT22;4962;50.084;8.794;2023-03-04T06:45:07;9.20;99.90
9847;DHT22;4962;50.084;8.794;2023-03-04T06:47:35;9.20;99.90
9847;DHT22;4962;50.084;8.794;2023-03-04T06:50:11;9.20;99.90
9847;DHT22;4962;50.084;8.794;2023-03-04T06:52:40;9.20;99.90
9847;DHT22;4962;50.084;8.794;2023-03-04T06:55:08;9.20;99.90
9847;DHT22;4962;50.084;8.794;2023-03-04T06:57:38;9.20;99.90
9847;DHT22;4962;50.084;8.794;2023-03-04T07:00:09;9.20;99.90
9847;DHT22;4962;50.084;8.794;2023-03-04T07:02:36;9.20;99.90
9847;DHT22;4962;50.084;8.794;2023-03-04T07:05:03;9.30;99.90
9847;DHT22;4962;50.084;8.794;2023-03-04T07:07:30;9.20;99.90
9847;DHT22;4962;50.084;8.794;2023-03-04T07:09:57;9.20;99.90
9847;DHT22;4962;50.084;8.794;2023-03-04T07:12:24;9.30;99.90
9847;DHT22;4962;50.084;8.794;2023-03-04T07:14:51;9.30;99.90
9847;DHT22;4962;50.084;8.794;2023-03-04T07:17:19;9.30;99.90
9847;DHT22;4962;50.084;8.794;2023-03-04T07:19:46;9.30;99.90
9847;DHT22;4962;50.084;8.794;2023-03-04T07:22:13;9.30;99.90
9847;DHT22;4962;50.084;8.794;2023-03-04T07:24:40;9.10;99.90
9847;DHT22;4962;50.084;8.794;2023-03-04T07:27:07;9.40;99.90
9847;DHT22;4962;50.084;8.794;2023-03-04T07:29:34;9.30;99.90
9847;DHT22;4962;50.084;8.794;2023-03-04T07:32:01;9.40;99.90
9847;DHT22;4962;50.084;8.794;2023-03-04T07:34:29;9.40;99.90
9847;DHT22;4962;50.084;8.794;2023-03-04T07:36:56;9.40;99.90
9847;DHT22;4962;50.084;8.794;2023-03-04T07:39:23;9.40;99.90
9847;DHT22;4962;50.084;8.794;2023-03-04T07:41:50;9.40;99.90
9847;DHT22;4962;50.084;8.794;2023-03-04T07:44:17;9.50;99.90
9847;DHT22;4962;50.084;8.794;2023-03-04T07:46:44;9.60;99.90
9847;DHT22;4962;50.084;8.794;2023-03-04T07:49:11;9.50;99.90
9847;DHT22;4962;50.084;8.794;2023-03-04T07:51:40;9.60;99.90
9847;DHT22;4962;50.084;8.794;2023-03-04T07:54:14;9.60;99.90
9847;DHT22;4962;50.084;8.794;2023-03-04T07:56:44;9.60;99.90
9847;DHT22;4962;50.084;8.794;2023-03-04T07:59:11;9.60;99.90
9847;DHT22;4962;50.084;8.794;2023-03-04T08:02:08;9.70;99.90
9847;DHT22;4962;50.084;8.794;2023-03-04T08:04:36;9.70;99.90
9847;DHT22;4962;50.084;8.794;2023-03-04T08:07:04;9.80;99.90
9847;DHT22;4962;50.084;8.794;2023-03-04T08:09:31;9.80;99.90
9847;DHT22;4962;50.084;8.794;2023-03-04T08:11:58;9.90;99.90
9847;DHT22;4962;50.084;8.794;2023-03-04T08:14:25;9.90;99.90
9847;DHT22;4962;50.084;8.794;2023-03-04T08:16:52;10.00;99.90
9847;DHT22;4962;50.084;8.794;2023-03-04T08:19:19;10.10;99.90
9847;DHT22;4962;50.084;8.794;2023-03-04T08:21:46;10.20;99.90
9847;DHT22;4962;50.084;8.794;2023-03-04T08:24:15;10.30;99.90
9847;DHT22;4962;50.084;8.794;2023-03-04T08:26:44;10.20;99.90
9847;DHT22;4962;50.084;8.794;2023-03-04T08:29:13;10.40;99.90
9847;DHT22;4962;50.084;8.794;2023-03-04T08:31:41;10.60;99.90
9847;DHT22;4962;50.084;8.794;2023-03-04T08:34:11;10.70;99.90
9847;DHT22;4962;50.084;8.794;2023-03-04T08:36:39;10.80;99.90
9847;DHT22;4962;50.084;8.794;2023-03-04T08:39:08;10.90;99.90
9847;DHT22;4962;50.084;8.794;2023-03-04T08:41:36;11.00;99.90
9847;DHT22;4962;50.084;8.794;2023-03-04T08:44:04;11.00;99.90
9847;DHT22;4962;50.084;8.794;2023-03-04T08:46:33;11.10;99.90
9847;DHT22;4962;50.084;8.794;2023-03-04T08:49:00;11.10;99.90
9847;DHT22;4962;50.084;8.794;2023-03-04T08:51:27;11.20;99.90
9847;DHT22;4962;50.084;8.794;2023-03-04T08:53:56;11.20;99.90
9847;DHT22;4962;50.084;8.794;2023-03-04T08:56:24;11.10;99.90
9847;DHT22;4962;50.084;8.794;2023-03-04T08:58:52;11.10;99.90
9847;DHT22;4962;50.084;8.794;2023-03-04T09:01:36;11.20;99.90
9847;DHT22;4962;50.084;8.794;2023-03-04T09:04:07;11.10;99.90
9847;DHT22;4962;50.084;8.794;2023-03-04T09:06:56;11.20;99.90
9847;DHT22;4962;50.084;8.794;2023-03-04T09:09:30;10.90;99.90
9847;DHT22;4962;50.084;8.794;2023-03-04T09:12:15;10.70;99.90
9847;DHT22;4962;50.084;8.794;2023-03-04T09:18:32;11.10;99.90
9847;DHT22;4962;50.084;8.794;2023-03-04T09:21:28;11.10;99.90
9847;DHT22;4962;50.084;8.794;2023-03-04T09:26:36;11.10;99.90
9847;DHT22;4962;50.084;8.794;2023-03-04T09:27:47;11.20;99.90
9847;DHT22;4962;50.084;8.794;2023-03-04T09:30:44;11.00;99.90
9847;DHT22;4962;50.084;8.794;2023-03-04T09:33:14;11.10;99.90
9847;DHT22;4962;50.084;8.794;2023-03-04T09:35:43;11.10;99.90
9847;DHT22;4962;50.084;8.794;2023-03-04T09:38:10;11.20;99.90
9847;DHT22;4962;50.084;8.794;2023-03-04T09:40:40;11.10;99.90
9847;DHT22;4962;50.084;8.794;2023-03-04T09:43:14;11.20;99.90
9847;DHT22;4962;50.084;8.794;2023-03-04T09:45:47;11.30;99.90
9847;DHT22;4962;50.084;8.794;2023-03-04T09:48:16;11.30;99.90
9847;DHT22;4962;50.084;8.794;2023-03-04T09:51:04;11.40;99.90
9847;DHT22;4962;50.084;8.794;2023-03-04T09:53:42;11.30;99.90
9847;DHT22;4962;50.084;8.794;2023-03-04T09:56:13;11.40;99.90
9847;DHT22;4962;50.084;8.794;2023-03-04T09:58:48;11.40;99.90
9847;DHT22;4962;50.084;8.794;2023-03-04T10:01:20;11.50;99.90
9847;DHT22;4962;50.084;8.794;2023-03-04T10:03:52;11.50;99.90
9847;DHT22;4962;50.084;8.794;2023-03-04T10:06:22;11.60;99.90
9847;DHT22;4962;50.084;8.794;2023-03-04T10:08:53;11.60;99.90
9847;DHT22;4962;50.084;8.794;2023-03-04T10:11:24;11.80;99.90
9847;DHT22;4962;50.084;8.794;2023-03-04T10:14:01;11.80;99.90
9847;DHT22;4962;50.084;8.794;2023-03-04T10:16:33;12.00;99.90
9847;DHT22;4962;50.084;8.794;2023-03-04T10:19:21;11.80;99.90
9847;DHT22;4962;50.084;8.794;2023-03-04T10:21:51;11.90;99.90
9847;DHT22;4962;50.084;8.794;2023-03-04T10:24:20;12.00;99.90
9847;DHT22;4962;50.084;8.794;2023-03-04T10:26:52;12.00;99.90
9847;DHT22;4962;50.084;8.794;2023-03-04T10:29:22;12.10;99.90
9847;DHT22;4962;50.084;8.794;2023-03-04T10:31:49;11.90;99.90
9847;DHT22;4962;50.084;8.794;2023-03-04T10:34:20;12.00;99.90
9847;DHT22;4962;50.084;8.794;2023-03-04T10:36:54;11.90;99.90
9847;DHT22;4962;50.084;8.794;2023-03-04T10:39:26;11.80;99.90
9847;DHT22;4962;50.084;8.794;2023-03-04T10:41:58;12.00;99.90
9847;DHT22;4962;50.084;8.794;2023-03-04T10:44:26;12.20;99.90
9847;DHT22;4962;50.084;8.794;2023-03-04T10:46:55;12.10;99.90
9847;DHT22;4962;50.084;8.794;2023-03-04T10:49:22;12.20;99.90
9847;DHT22;4962;50.084;8.794;2023-03-04T10:51:52;12.20;99.90
9847;DHT22;4962;50.084;8.794;2023-03-04T10:54:26;12.10;99.90
9847;DHT22;4962;50.084;8.794;2023-03-04T10:56:59;12.20;99.90
9847;DHT22;4962;50.084;8.794;2023-03-04T11:02:25;12.20;99.90
9847;DHT22;4962;50.084;8.794;2023-03-04T11:04:55;12.10;99.90
9847;DHT22;4962;50.084;8.794;2023-03-04T11:07:24;12.20;99.90
9847;DHT22;4962;50.084;8.794;2023-03-04T11:10:09;12.40;99.90
9847;DHT22;4962;50.084;8.794;2023-03-04T11:12:36;12.30;99.90
9847;DHT22;4962;50.084;8.794;2023-03-04T11:15:17;12.40;99.90
9847;DHT22;4962;50.084;8.794;2023-03-04T11:17:47;12.40;99.90
9847;DHT22;4962;50.084;8.794;2023-03-04T11:20:24;12.60;99.90
9847;DHT22;4962;50.084;8.794;2023-03-04T11:22:53;12.60;99.90
9847;DHT22;4962;50.084;8.794;2023-03-04T11:25:27;12.50;99.90
9847;DHT22;4962;50.084;8.794;2023-03-04T11:27:58;12.60;99.90
9847;DHT22;4962;50.084;8.794;2023-03-04T11:30:33;12.60;99.90
9847;DHT22;4962;50.084;8.794;2023-03-04T11:33:10;12.60;99.90
9847;DHT22;4962;50.084;8.794;2023-03-04T11:35:45;12.70;99.90
9847;DHT22;4962;50.084;8.794;2023-03-04T11:38:18;12.80;99.90
9847;DHT22;4962;50.084;8.794;2023-03-04T11:41:17;12.80;99.90
9847;DHT22;4962;50.084;8.794;2023-03-04T11:43:46;12.90;99.90
9847;DHT22;4962;50.084;8.794;2023-03-04T11:46:37;12.90;99.90
9847;DHT22;4962;50.084;8.794;2023-03-04T11:49:31;13.10;99.90
9847;DHT22;4962;50.084;8.794;2023-03-04T11:52:08;12.90;99.90
9847;DHT22;4962;50.084;8.794;2023-03-04T11:54:44;13.00;99.90
9847;DHT22;4962;50.084;8.794;2023-03-04T11:57:26;13.00;99.90
9847;DHT22;4962;50.084;8.794;2023-03-04T12:00:03;12.80;99.90
9847;DHT22;4962;50.084;8.794;2023-03-04T12:02:42;12.70;99.90
9847;DHT22;4962;50.084;8.794;2023-03-04T12:05:26;12.60;99.90
9847;DHT22;4962;50.084;8.794;2023-03-04T12:08:28;12.60;99.90
9847;DHT22;4962;50.084;8.794;2023-03-04T12:11:04;12.50;99.90
9847;DHT22;4962;50.084;8.794;2023-03-04T12:14:01;12.50;99.90
9847;DHT22;4962;50.084;8.794;2023-03-04T12:17:00;12.40;99.90
9847;DHT22;4962;50.084;8.794;2023-03-04T12:19:42;12.40;99.90
9847;DHT22;4962;50.084;8.794;2023-03-04T12:22:23;12.40;99.90
9847;DHT22;4962;50.084;8.794;2023-03-04T12:28:02;12.40;99.90
9847;DHT22;4962;50.084;8.794;2023-03-04T12:30:44;12.40;99.90
9847;DHT22;4962;50.084;8.794;2023-03-04T12:33:22;12.50;99.90
9847;DHT22;4962;50.084;8.794;2023-03-04T12:35:57;12.50;99.90
9847;DHT22;4962;50.084;8.794;2023-03-04T12:38:41;12.50;99.90
9847;DHT22;4962;50.084;8.794;2023-03-04T12:41:21;12.50;99.90
9847;DHT22;4962;50.084;8.794;2023-03-04T12:43:57;12.60;99.90
9847;DHT22;4962;50.084;8.794;2023-03-04T12:46:38;12.50;99.90
9847;DHT22;4962;50.084;8.794;2023-03-04T12:52:05;12.40;99.90
9847;DHT22;4962;50.084;8.794;2023-03-04T12:54:39;12.40;99.90
9847;DHT22;4962;50.084;8.794;2023-03-04T12:57:11;12.30;99.90
9847;DHT22;4962;50.084;8.794;2023-03-04T12:59:43;12.30;99.90
9847;DHT22;4962;50.084;8.794;2023-03-04T13:05:21;12.10;99.90
9847;DHT22;4962;50.084;8.794;2023-03-04T13:07:57;12.20;99.90
9847;DHT22;4962;50.084;8.794;2023-03-04T13:10:26;12.10;99.90
9847;DHT22;4962;50.084;8.794;2023-03-04T13:12:55;11.90;99.90
9847;DHT22;4962;50.084;8.794;2023-03-04T13:15:30;12.00;99.90
9847;DHT22;4962;50.084;8.794;2023-03-04T13:18:01;12.00;99.90
9847;DHT22;4962;50.084;8.794;2023-03-04T13:20:36;12.00;99.90
9847;DHT22;4962;50.084;8.794;2023-03-04T13:23:26;12.10;99.90
9847;DHT22;4962;50.084;8.794;2023-03-04T13:29:31;12.20;99.90
9847;DHT22;4962;50.084;8.794;2023-03-04T13:32:02;12.20;99.90
9847;DHT22;4962;50.084;8.794;2023-03-04T13:34:46;12.20;99.90
9847;DHT22;4962;50.084;8.794;2023-03-04T13:37:35;12.30;99.90
9847;DHT22;4962;50.084;8.794;2023-03-04T13:40:34;12.20;99.90
9847;DHT22;4962;50.084;8.794;2023-03-04T13:43:24;12.20;99.90
9847;DHT22;4962;50.084;8.794;2023-03-04T13:45:52;12.20;99.90
9847;DHT22;4962;50.084;8.794;2023-03-04T13:48:29;12.20;99.90
9847;DHT22;4962;50.084;8.794;2023-03-04T13:50:59;12.20;99.90
9847;DHT22;4962;50.084;8.794;2023-03-04T13:53:41;12.20;99.90
9847;DHT22;4962;50.084;8.794;2023-03-04T13:56:33;12.20;99.90
9847;DHT22;4962;50.084;8.794;2023-03-04T13:59:26;12.10;99.90
9847;DHT22;4962;50.084;8.794;2023-03-04T14:02:09;12.30;99.90
9847;DHT22;4962;50.084;8.794;2023-03-04T14:04:38;12.20;99.90
9847;DHT22;4962;50.084;8.794;2023-03-04T14:07:20;12.30;99.90
9847;DHT22;4962;50.084;8.794;2023-03-04T14:09:59;12.40;99.90
9847;DHT22;4962;50.084;8.794;2023-03-04T14:12:28;12.40;99.90
9847;DHT22;4962;50.084;8.794;2023-03-04T14:14:57;12.40;99.90
9847;DHT22;4962;50.084;8.794;2023-03-04T14:17:28;12.50;99.90
9847;DHT22;4962;50.084;8.794;2023-03-04T14:19:56;12.40;99.90
9847;DHT22;4962;50.084;8.794;2023-03-04T14:22:27;12.40;99.90
9847;DHT22;4962;50.084;8.794;2023-03-04T14:24:58;12.30;99.90
9847;DHT22;4962;50.084;8.794;2023-03-04T14:27:25;12.30;99.90
9847;DHT22;4962;50.084;8.794;2023-03-04T14:29:56;12.30;99.90
9847;DHT22;4962;50.084;8.794;2023-03-04T14:32:24;12.30;99.90
9847;DHT22;4962;50.084;8.794;2023-03-04T14:34:58;12.20;99.90
9847;DHT22;4962;50.084;8.794;2023-03-04T14:37:37;12.20;99.90
9847;DHT22;4962;50.084;8.794;2023-03-04T14:40:18;12.20;99.90
9847;DHT22;4962;50.084;8.794;2023-03-04T14:42:46;12.10;99.90
9847;DHT22;4962;50.084;8.794;2023-03-04T14:45:27;12.10;99.90
9847;DHT22;4962;50.084;8.794;2023-03-04T14:47:56;12.10;99.90
9847;DHT22;4962;50.084;8.794;2023-03-04T14:50:24;12.10;99.90
9847;DHT22;4962;50.084;8.794;2023-03-04T14:53:04;12.10;99.90
9847;DHT22;4962;50.084;8.794;2023-03-04T14:55:36;12.10;99.90
9847;DHT22;4962;50.084;8.794;2023-03-04T14:58:07;12.20;99.90
9847;DHT22;4962;50.084;8.794;2023-03-04T15:00:36;12.20;99.90
9847;DHT22;4962;50.084;8.794;2023-03-04T15:03:16;12.20;99.90
9847;DHT22;4962;50.084;8.794;2023-03-04T15:05:45;12.20;99.90
9847;DHT22;4962;50.084;8.794;2023-03-04T15:08:21;12.30;99.90
9847;DHT22;4962;50.084;8.794;2023-03-04T15:10:54;12.30;99.90
9847;DHT22;4962;50.084;8.794;2023-03-04T15:13:36;12.30;99.90
9847;DHT22;4962;50.084;8.794;2023-03-04T15:16:04;12.30;99.90
9847;DHT22;4962;50.084;8.794;2023-03-04T15:18:31;12.30;99.90
9847;DHT22;4962;50.084;8.794;2023-03-04T15:20:59;12.20;99.90
9847;DHT22;4962;50.084;8.794;2023-03-04T15:23:38;12.20;99.90
9847;DHT22;4962;50.084;8.794;2023-03-04T15:26:09;12.10;99.90
9847;DHT22;4962;50.084;8.794;2023-03-04T15:28:37;12.10;99.90
9847;DHT22;4962;50.084;8.794;2023-03-04T15:31:05;12.10;99.90
9847;DHT22;4962;50.084;8.794;2023-03-04T15:33:32;11.90;99.90
9847;DHT22;4962;50.084;8.794;2023-03-04T15:36:01;11.90;99.90
9847;DHT22;4962;50.084;8.794;2023-03-04T15:38:28;11.90;99.90
9847;DHT22;4962;50.084;8.794;2023-03-04T15:40:57;11.90;99.90
9847;DHT22;4962;50.084;8.794;2023-03-04T15:43:25;11.80;99.90
9847;DHT22;4962;50.084;8.794;2023-03-04T15:45:52;11.80;99.90
9847;DHT22;4962;50.084;8.794;2023-03-04T15:48:19;11.80;99.90
9847;DHT22;4962;50.084;8.794;2023-03-04T15:50:48;11.60;99.90
9847;DHT22;4962;50.084;8.794;2023-03-04T15:53:18;11.70;99.90
9847;DHT22;4962;50.084;8.794;2023-03-04T15:55:47;11.70;99.90
9847;DHT22;4962;50.084;8.794;2023-03-04T15:58:16;11.70;99.90
9847;DHT22;4962;50.084;8.794;2023-03-04T16:00:43;11.70;99.90
9847;DHT22;4962;50.084;8.794;2023-03-04T16:03:14;11.70;99.90
9847;DHT22;4962;50.084;8.794;2023-03-04T16:05:42;11.70;99.90
9847;DHT22;4962;50.084;8.794;2023-03-04T16:08:11;11.70;99.90
9847;DHT22;4962;50.084;8.794;2023-03-04T16:10:39;11.70;99.90
9847;DHT22;4962;50.084;8.794;2023-03-04T16:13:12;11.60;99.90
9847;DHT22;4962;50.084;8.794;2023-03-04T16:15:41;11.60;99.90
9847;DHT22;4962;50.084;8.794;2023-03-04T16:18:09;11.60;99.90
9847;DHT22;4962;50.084;8.794;2023-03-04T16:20:37;11.60;99.90
9847;DHT22;4962;50.084;8.794;2023-03-04T16:23:05;11.60;99.90
9847;DHT22;4962;50.084;8.794;2023-03-04T16:25:32;11.60;99.90
9847;DHT22;4962;50.084;8.794;2023-03-04T16:27:59;11.60;99.90
9847;DHT22;4962;50.084;8.794;2023-03-04T16:30:29;11.50;99.90
9847;DHT22;4962;50.084;8.794;2023-03-04T16:32:58;11.50;99.90
9847;DHT22;4962;50.084;8.794;2023-03-04T16:35:25;11.50;99.90
9847;DHT22;4962;50.084;8.794;2023-03-04T16:37:53;11.40;99.90
9847;DHT22;4962;50.084;8.794;2023-03-04T16:40:25;11.40;99.90
9847;DHT22;4962;50.084;8.794;2023-03-04T16:42:52;11.40;99.90
9847;DHT22;4962;50.084;8.794;2023-03-04T16:45:24;11.80;99.90
9847;DHT22;4962;50.084;8.794;2023-03-04T16:47:51;11.50;99.90
9847;DHT22;4962;50.084;8.794;2023-03-04T16:50:23;11.40;99.90
9847;DHT22;4962;50.084;8.794;2023-03-04T16:52:52;11.60;99.90